Time;durP1;ratioP1;P1;durP2;ratioP2;P2;SDS_P1;SDS_P2;PMS_P1;PMS_P2;Temp;Humidity;BMP_temperature;BMP_pressure;BME280_temperature;BME280_humidity;BME280_pressure;Samples;Min_cycle;Max_cycle;Signal;HPM_P1;HPM_P2
2024/01/13 00:00:35;;;;;;;116.10;47.85;;;;;;;-4.26;88.74;100250.00;4905632;29;20060;-78
2024/01/13 00:03:21;;;;;;;129.85;50.17;;;;;;;-4.36;88.49;100238.59;4906209;29;20418;-77
2024/01/13 00:06:06;;;;;;;117.60;48.17;;;;;;;-4.27;89.61;100252.69;4894106;29;20474;-77
2024/01/13 00:08:54;;;;;;;134.07;56.63;;;;;;;-4.30;88.70;100258.94;4896179;29;20451;-77
2024/01/13 00:11:39;;;;;;;120.43;50.47;;;;;;;-4.37;88.30;100231.75;4897536;29;20056;-77
2024/01/13 00:14:24;;;;;;;127.85;52.08;;;;;;;-4.13;89.06;100247.34;4912468;29;20052;-76
2024/01/13 00:17:14;;;;;;;136.77;56.53;;;;;;;-4.12;89.06;100241.22;4905171;29;20048;-79
2024/01/13 00:19:59;;;;;;;135.05;54.80;;;;;;;-4.16;88.29;100234.59;4916839;29;20052;-79
2024/01/13 00:22:47;;;;;;;140.45;52.15;;;;;;;-4.16;87.96;100241.56;4909272;29;20040;-76
2024/01/13 00:25:33;;;;;;;132.40;54.58;;;;;;;-4.19;88.18;100235.66;4897592;29;20395;-78
2024/01/13 00:28:18;;;;;;;127.38;53.85;;;;;;;-4.27;88.60;100227.56;4895196;29;20056;-79
2024/01/13 00:31:05;;;;;;;134.35;54.05;;;;;;;-4.23;87.69;100235.97;4897135;29;20060;-78
2024/01/13 00:33:50;;;;;;;163.98;63.20;;;;;;;-4.24;87.89;100242.91;4908875;29;20399;-78
2024/01/13 00:36:36;;;;;;;175.35;68.03;;;;;;;-4.25;88.29;100236.09;4895256;29;20459;-77
2024/01/13 00:39:22;;;;;;;213.35;82.50;;;;;;;-4.19;88.02;100242.59;4929103;28;20063;-77
2024/01/13 00:42:07;;;;;;;204.00;82.57;;;;;;;-4.30;87.32;100214.81;4896043;29;20052;-77
2024/01/13 00:44:52;;;;;;;197.07;75.13;;;;;;;-4.18;87.97;100231.28;4896981;29;20467;-78
2024/01/13 00:47:39;;;;;;;188.73;77.97;;;;;;;-4.19;88.12;100235.66;4910401;29;20471;-76
2024/01/13 00:50:24;;;;;;;190.52;77.03;;;;;;;-4.19;88.39;100232.22;4897980;29;20048;-77
2024/01/13 00:53:09;;;;;;;208.15;83.30;;;;;;;-4.19;87.93;100229.63;4924231;29;20403;-76
2024/01/13 00:55:54;;;;;;;202.77;80.57;;;;;;;-4.21;88.49;100227.13;4896901;29;20044;-77
2024/01/13 00:58:40;;;;;;;200.10;74.40;;;;;;;-4.21;87.61;100216.75;4897988;29;20052;-75
2024/01/13 01:01:25;;;;;;;194.32;78.43;;;;;;;-4.22;88.57;100227.25;4902572;29;20048;-79
2024/01/13 01:04:11;;;;;;;201.90;79.70;;;;;;;-4.21;88.21;100227.13;4902014;29;20059;-76
2024/01/13 01:06:56;;;;;;;230.52;94.47;;;;;;;-4.21;88.73;100229.72;4896547;29;20052;-81
2024/01/13 01:09:42;;;;;;;201.85;82.07;;;;;;;-4.22;89.11;100214.28;4895930;29;20056;-77
2024/01/13 01:12:27;;;;;;;180.77;76.25;;;;;;;-4.26;88.38;100203.28;4896350;29;20036;-76
2024/01/13 01:15:13;;;;;;;200.57;76.68;;;;;;;-4.24;87.87;100211.78;4896492;29;20044;-75
2024/01/13 01:17:59;;;;;;;197.30;75.75;;;;;;;-4.20;88.00;100217.56;4901030;29;20055;-78
2024/01/13 01:20:44;;;;;;;201.10;78.18;;;;;;;-4.24;88.50;100209.19;4896526;29;20052;-78
2024/01/13 01:23:30;;;;;;;199.25;76.50;;;;;;;-4.19;88.52;100211.47;4907666;29;20044;-78
2024/01/13 01:26:16;;;;;;;183.65;71.68;;;;;;;-4.12;88.39;100227.41;4908060;29;20048;-77
2024/01/13 01:29:02;;;;;;;198.52;80.78;;;;;;;-4.07;89.54;100227.91;4895636;29;20460;-78
2024/01/13 01:31:47;;;;;;;215.63;84.13;;;;;;;-4.13;89.09;100210.19;4896420;29;20044;-78
2024/01/13 01:34:33;;;;;;;205.00;84.70;;;;;;;-3.98;88.65;100237.59;4897616;29;20048;-78
2024/01/13 01:37:19;;;;;;;194.68;76.55;;;;;;;-3.94;89.25;100225.25;4900993;29;20052;-76
2024/01/13 01:40:06;;;;;;;198.88;78.65;;;;;;;-3.96;87.68;100215.78;4912345;29;20395;-77
2024/01/13 01:42:52;;;;;;;194.70;80.55;;;;;;;-3.99;88.35;100216.00;4909142;29;20052;-77
2024/01/13 01:45:38;;;;;;;187.38;79.35;;;;;;;-3.94;87.70;100212.28;4901176;28;20467;-76
2024/01/13 01:48:27;;;;;;;202.25;81.80;;;;;;;-4.06;88.08;100193.22;4919498;29;20429;-79
2024/01/13 01:51:16;;;;;;;195.02;80.47;;;;;;;-4.06;88.21;100207.03;4913428;29;20459;-77
2024/01/13 01:54:02;;;;;;;208.38;84.82;;;;;;;-4.10;88.29;100202.19;4913408;29;20463;-77
2024/01/13 01:56:48;;;;;;;214.48;86.57;;;;;;;-4.18;88.72;100189.75;4908200;29;20048;-77
2024/01/13 01:59:33;;;;;;;201.75;86.32;;;;;;;-4.23;88.78;100192.69;4908311;29;20056;-76
2024/01/13 02:02:22;;;;;;;227.40;97.90;;;;;;;-4.21;88.45;100200.34;4899287;29;20052;-79
2024/01/13 02:05:08;;;;;;;226.55;93.43;;;;;;;-4.27;89.14;100198.19;4895797;29;20056;-76
2024/01/13 02:07:53;;;;;;;192.18;77.22;;;;;;;-4.18;88.56;100208.72;4895695;29;20486;-76
2024/01/13 02:10:39;;;;;;;275.70;111.50;;;;;;;-4.18;89.04;100197.53;4901965;29;20056;-79
2024/01/13 02:13:24;;;;;;;217.70;90.30;;;;;;;-4.23;88.76;100182.31;4893044;29;20052;-75
2024/01/13 02:16:10;;;;;;;211.05;89.07;;;;;;;-4.05;89.63;100184.47;4906125;29;20395;-80
2024/01/13 02:18:56;;;;;;;182.75;74.65;;;;;;;-4.06;89.05;100185.44;4962757;28;20467;-78
2024/01/13 02:21:41;;;;;;;175.73;74.28;;;;;;;-4.03;89.33;100186.03;4906097;29;20059;-77
2024/01/13 02:24:27;;;;;;;177.52;78.00;;;;;;;-4.03;88.73;100190.41;4895296;29;20471;-78
2024/01/13 02:27:12;;;;;;;193.50;79.85;;;;;;;-3.94;89.34;100197.50;4894945;29;20052;-79
2024/01/13 02:29:58;;;;;;;184.23;74.60;;;;;;;-3.94;88.14;100187.13;4893675;29;20036;-79
2024/01/13 02:32:42;;;;;;;207.55;83.05;;;;;;;-3.91;88.14;100191.28;4895080;29;20463;-78
2024/01/13 02:35:28;;;;;;;206.45;84.35;;;;;;;-3.93;88.49;100190.53;4913641;29;20056;-78
2024/01/13 02:38:14;;;;;;;179.27;78.30;;;;;;;-3.87;88.97;100190.91;4907062;29;20056;-78
2024/01/13 02:40:59;;;;;;;160.00;67.32;;;;;;;-3.80;88.80;100189.50;4894033;29;20044;-77
2024/01/13 02:43:45;;;;;;;161.88;66.10;;;;;;;-3.82;88.42;100181.03;4894782;29;20048;-77
2024/01/13 02:46:30;;;;;;;166.68;63.50;;;;;;;-3.72;88.56;100184.59;4886428;29;20044;-78
2024/01/13 02:49:15;;;;;;;175.65;66.55;;;;;;;-3.68;88.14;100177.38;4894660;29;20048;-78
2024/01/13 02:52:01;;;;;;;178.55;68.88;;;;;;;-3.70;88.48;100168.03;4894831;29;20056;-78
2024/01/13 02:54:48;;;;;;;189.68;66.88;;;;;;;-3.67;87.77;100166.03;4906652;29;20406;-76
2024/01/13 02:57:34;;;;;;;189.88;68.03;;;;;;;-3.78;87.43;100150.44;4897584;29;20377;-79
2024/01/13 03:00:19;;;;;;;205.57;71.65;;;;;;;-3.74;88.01;100164.84;4897948;29;20465;-77
2024/01/13 03:03:05;;;;;;;201.90;69.57;;;;;;;-3.68;86.51;100167.00;4901330;29;20044;-77
2024/01/13 03:05:51;;;;;;;166.68;62.45;;;;;;;-3.66;88.01;100170.31;4911236;29;20049;-78
2024/01/13 03:08:36;;;;;;;178.90;63.95;;;;;;;-3.66;87.61;100169.50;4908414;29;20048;-78
2024/01/13 03:11:22;;;;;;;164.45;63.72;;;;;;;-3.65;87.02;100171.97;4894546;29;20059;-78
2024/01/13 03:14:07;;;;;;;161.65;62.47;;;;;;;-3.65;87.15;100161.56;4900149;29;20056;-78
2024/01/13 03:16:53;;;;;;;199.45;82.68;;;;;;;-3.65;87.58;100166.75;4894834;29;20040;-78
2024/01/13 03:19:38;;;;;;;215.05;87.18;;;;;;;-3.72;87.49;100161.22;4893252;29;20395;-78
2024/01/13 03:22:24;;;;;;;217.48;86.07;;;;;;;-3.70;87.44;100168.88;4961880;28;20048;-78
2024/01/13 03:25:09;;;;;;;200.32;79.00;;;;;;;-3.68;86.91;100174.78;4894435;29;20471;-79
2024/01/13 03:27:55;;;;;;;185.60;76.40;;;;;;;-3.65;88.16;100174.56;4893028;29;20056;-78
2024/01/13 03:30:41;;;;;;;176.90;73.25;;;;;;;-3.61;87.96;100177.75;4925559;29;20052;-78
2024/01/13 03:33:26;;;;;;;164.52;63.05;;;;;;;-3.64;88.36;100171.00;4894102;29;20048;-80
2024/01/13 03:36:12;;;;;;;137.82;55.67;;;;;;;-3.72;87.75;100157.78;4893731;29;20443;-78
2024/01/13 03:38:59;;;;;;;178.90;69.43;;;;;;;-3.83;86.80;100143.00;4885988;29;20056;-77
2024/01/13 03:41:44;;;;;;;175.65;69.40;;;;;;;-3.75;88.09;100161.44;4928610;28;20051;-78
2024/01/13 03:44:30;;;;;;;142.82;58.53;;;;;;;-3.82;87.74;100155.06;4893877;29;20439;-78
2024/01/13 03:47:15;;;;;;;133.65;49.13;;;;;;;-3.75;86.99;100166.63;4903255;29;20044;-75
2024/01/13 03:50:01;;;;;;;91.22;38.58;;;;;;;-3.79;86.90;100170.41;4898679;29;20043;-78
2024/01/13 03:52:46;;;;;;;96.22;37.92;;;;;;;-3.90;87.01;100159.16;4910406;29;20047;-76
2024/01/13 03:55:32;;;;;;;93.63;37.00;;;;;;;-3.90;85.65;100154.78;4915980;29;20068;-78
2024/01/13 03:58:17;;;;;;;84.57;35.85;;;;;;;-3.94;86.03;100155.13;4907613;29;20074;-77
2024/01/13 04:01:02;;;;;;;85.15;37.80;;;;;;;-4.02;86.32;100143.53;4914572;29;20485;-80
2024/01/13 04:03:48;;;;;;;92.60;38.55;;;;;;;-4.00;86.78;100135.66;4910954;29;20052;-79
2024/01/13 04:06:39;;;;;;;101.72;41.85;;;;;;;-3.99;86.96;100132.09;4908208;29;20419;-77
2024/01/13 04:09:24;;;;;;;97.97;40.38;;;;;;;-3.90;86.29;100147.00;4901452;29;20411;-78
2024/01/13 04:12:09;;;;;;;113.35;47.70;;;;;;;-3.89;86.52;100148.63;4896176;29;20056;-78
2024/01/13 04:14:55;;;;;;;118.55;48.40;;;;;;;-3.89;86.09;100135.66;4899097;29;20044;-78
2024/01/13 04:17:41;;;;;;;111.15;44.47;;;;;;;-3.96;87.35;100124.06;4909576;29;20055;-78
2024/01/13 04:20:26;;;;;;;163.77;58.53;;;;;;;-3.87;86.62;100138.16;4985526;28;20051;-78
2024/01/13 04:23:11;;;;;;;170.75;64.80;;;;;;;-3.86;86.86;100137.19;4917275;29;20052;-78
2024/01/13 04:25:56;;;;;;;176.57;70.65;;;;;;;-3.81;87.95;100141.13;4911822;29;20047;-78
2024/01/13 04:28:42;;;;;;;162.20;60.15;;;;;;;-3.77;87.57;100136.50;4921401;29;20047;-77
2024/01/13 04:31:28;;;;;;;135.77;54.45;;;;;;;-3.74;87.38;100136.28;4919741;29;20039;-77
2024/01/13 04:34:13;;;;;;;112.25;45.58;;;;;;;-3.75;86.75;100134.63;4917433;29;20467;-78
2024/01/13 04:37:00;;;;;;;108.30;42.20;;;;;;;-3.75;86.45;100142.44;4912778;29;20402;-79
2024/01/13 04:39:45;;;;;;;109.30;43.30;;;;;;;-3.73;86.84;100156.97;4920826;28;20047;-76
2024/01/13 04:42:31;;;;;;;97.63;41.58;;;;;;;-3.78;86.79;100147.84;4915718;29;20062;-77
2024/01/13 04:45:16;;;;;;;103.43;41.55;;;;;;;-3.76;86.31;100144.19;4946691;28;20056;-78
2024/01/13 04:48:02;;;;;;;115.30;44.65;;;;;;;-3.74;87.66;100144.06;4902157;29;20406;-77
2024/01/13 04:50:47;;;;;;;111.88;44.47;;;;;;;-3.84;88.00;100124.94;4908536;29;20060;-77
2024/01/13 04:53:32;;;;;;;121.32;48.38;;;;;;;-3.74;87.85;100144.06;4919704;29;20402;-78
2024/01/13 04:56:18;;;;;;;149.25;56.97;;;;;;;-3.84;87.59;100119.75;4914427;29;20047;-77
2024/01/13 04:59:03;;;;;;;177.85;68.38;;;;;;;-3.76;89.04;100135.56;4907033;29;20459;-79
2024/01/13 05:01:49;;;;;;;204.95;77.88;;;;;;;-3.72;88.43;100137.00;4915290;29;20398;-76
2024/01/13 05:04:34;;;;;;;195.10;75.53;;;;;;;-3.78;88.98;100122.69;4920383;29;20051;-77
2024/01/13 05:07:20;;;;;;;164.30;64.40;;;;;;;-3.69;88.60;100138.53;4933911;28;20459;-78
2024/01/13 05:10:06;;;;;;;173.75;66.00;;;;;;;-3.71;88.99;100133.44;4912908;29;20044;-78
2024/01/13 05:12:51;;;;;;;186.50;71.40;;;;;;;-3.69;88.75;100133.34;4912826;28;20459;-77
2024/01/13 05:15:36;;;;;;;279.15;95.47;;;;;;;-3.72;88.63;100132.63;4913365;29;20044;-76
2024/01/13 05:18:21;;;;;;;147.52;54.47;;;;;;;-3.72;88.41;100132.63;4914867;29;20056;-77
2024/01/13 05:21:07;;;;;;;140.23;52.22;;;;;;;-3.70;89.24;100136.88;4913718;29;20056;-78
2024/01/13 05:23:52;;;;;;;114.20;46.30;;;;;;;-3.70;88.60;100144.66;4914187;29;20276;-76
2024/01/13 05:26:38;;;;;;;121.80;49.72;;;;;;;-3.68;88.27;100137.59;4914772;29;20459;-78
2024/01/13 05:29:23;;;;;;;123.60;48.47;;;;;;;-3.65;88.76;100134.75;4911207;29;20467;-77
2024/01/13 05:32:08;;;;;;;123.95;46.08;;;;;;;-3.70;88.78;100129.91;4917564;29;20051;-75
2024/01/13 05:34:54;;;;;;;125.78;48.00;;;;;;;-3.77;88.54;100124.34;4914670;29;20455;-78
2024/01/13 05:37:40;;;;;;;116.35;45.88;;;;;;;-3.65;89.16;100126.97;4914639;29;20039;-78
2024/01/13 05:40:25;;;;;;;124.10;46.00;;;;;;;-3.62;87.95;100134.53;4915070;29;20052;-77
2024/01/13 05:43:11;;;;;;;127.90;48.72;;;;;;;-3.75;88.32;100113.84;4905526;29;20044;-77
2024/01/13 05:45:56;;;;;;;108.50;45.88;;;;;;;-3.64;88.80;100128.63;4928220;28;20060;-76
2024/01/13 05:48:42;;;;;;;110.95;46.58;;;;;;;-3.59;87.26;100134.31;4896033;29;20052;-77
2024/01/13 05:51:33;;;;;;;130.32;53.45;;;;;;;-3.62;88.19;100108.56;4898035;29;20430;-76
2024/01/13 05:54:18;;;;;;;138.38;55.35;;;;;;;-3.53;88.75;100119.06;4901392;29;20401;-76
2024/01/13 05:57:04;;;;;;;133.98;55.10;;;;;;;-3.57;87.43;100104.66;4896966;29;20048;-76
2024/01/13 05:59:50;;;;;;;143.48;58.42;;;;;;;-3.54;88.71;100112.22;4907895;29;20403;-78
2024/01/13 06:02:36;;;;;;;138.32;58.58;;;;;;;-3.55;87.73;100115.75;4893516;29;20395;-75
2024/01/13 06:05:21;;;;;;;132.82;51.75;;;;;;;-3.56;88.54;100103.72;4894828;29;20048;-76
2024/01/13 06:08:07;;;;;;;133.30;55.90;;;;;;;-3.53;88.11;100113.88;4894432;29;20483;-75
2024/01/13 06:10:52;;;;;;;150.35;58.08;;;;;;;-3.52;89.01;100110.31;4912373;29;20056;-77
2024/01/13 06:13:39;;;;;;;155.60;61.50;;;;;;;-3.63;88.52;100104.31;4913870;29;20459;-78
2024/01/13 06:16:24;;;;;;;233.50;86.53;;;;;;;-3.52;88.05;100120.72;4895772;29;20395;-77
2024/01/13 06:19:09;;;;;;;202.27;79.07;;;;;;;-3.47;87.87;100117.78;4896650;29;20048;-76
2024/01/13 06:21:55;;;;;;;173.77;74.88;;;;;;;-3.44;87.28;100120.13;4896572;29;20052;-76
2024/01/13 06:24:40;;;;;;;178.00;72.93;;;;;;;-3.46;87.91;100111.63;4894415;29;20407;-76
2024/01/13 06:27:25;;;;;;;174.40;71.75;;;;;;;-3.45;88.26;100115.88;4896221;29;20048;-76
2024/01/13 06:30:12;;;;;;;164.52;72.65;;;;;;;-3.40;87.52;100123.31;4895944;29;20044;-78
2024/01/13 06:32:57;;;;;;;189.30;81.28;;;;;;;-3.35;88.03;100132.44;4914005;29;20399;-77
2024/01/13 06:35:42;;;;;;;221.00;97.25;;;;;;;-3.37;86.86;100116.13;4894776;29;20048;-77
2024/01/13 06:38:27;;;;;;;220.20;94.65;;;;;;;-3.27;87.59;100130.03;4895013;29;20044;-76
2024/01/13 06:41:13;;;;;;;193.05;83.15;;;;;;;-3.28;87.50;100128.41;4894768;29;20052;-77
2024/01/13 06:43:58;;;;;;;188.18;84.47;;;;;;;-3.33;87.92;100120.13;4907510;29;20048;-76
2024/01/13 06:46:44;;;;;;;216.38;91.80;;;;;;;-3.17;88.53;100129.34;4894024;28;20368;-77
2024/01/13 06:49:29;;;;;;;237.85;97.38;;;;;;;-3.11;88.38;100128.84;4907636;29;20044;-76
2024/01/13 06:52:15;;;;;;;223.52;95.15;;;;;;;-3.16;87.29;100125.81;4894903;29;20044;-76
2024/01/13 06:55:01;;;;;;;226.27;90.90;;;;;;;-3.08;87.06;100129.44;4895648;29;20052;-76
2024/01/13 06:57:46;;;;;;;228.50;102.40;;;;;;;-3.05;86.89;100126.59;4893804;29;20463;-76
2024/01/13 07:00:34;;;;;;;201.68;87.82;;;;;;;-2.99;86.41;100129.69;4894100;29;20048;-77
2024/01/13 07:03:19;;;;;;;210.98;88.85;;;;;;;-3.08;86.59;100120.81;4894341;29;20427;-77
2024/01/13 07:06:04;;;;;;;189.32;84.50;;;;;;;-2.90;85.93;100127.19;4895080;29;20052;-77
2024/01/13 07:08:50;;;;;;;188.35;79.85;;;;;;;-2.85;86.20;100126.81;4895779;29;20052;-76
2024/01/13 07:11:35;;;;;;;210.18;85.35;;;;;;;-2.73;85.95;100127.59;4901909;29;20044;-76
2024/01/13 07:14:20;;;;;;;186.23;76.10;;;;;;;-2.78;85.39;100119.38;4897414;29;20040;-79
2024/01/13 07:17:06;;;;;;;167.63;67.35;;;;;;;-2.70;85.97;100116.97;4966427;28;20402;-76
2024/01/13 07:19:51;;;;;;;144.80;62.47;;;;;;;-2.73;85.22;100109.41;4898166;29;20052;-77
2024/01/13 07:22:37;;;;;;;217.32;82.47;;;;;;;-2.61;84.96;100114.44;4895044;29;20040;-76
2024/01/13 07:25:24;;;;;;;199.77;77.28;;;;;;;-2.41;84.97;100122.44;4894793;29;20060;-76
2024/01/13 07:28:09;;;;;;;182.52;79.47;;;;;;;-2.34;84.59;100107.97;4906453;29;20056;-76
2024/01/13 07:30:55;;;;;;;156.90;65.63;;;;;;;-2.11;83.88;100114.72;4894234;29;20044;-75
2024/01/13 07:33:41;;;;;;;161.00;72.13;;;;;;;-2.06;82.44;100110.91;4897688;29;20460;-77
2024/01/13 07:36:27;;;;;;;221.13;89.63;;;;;;;-1.99;82.59;100112.88;4912847;29;20398;-75
2024/01/13 07:39:13;;;;;;;175.07;72.35;;;;;;;-1.97;81.63;100108.38;4913400;29;20099;-76
2024/01/13 07:41:58;;;;;;;182.30;72.22;;;;;;;-1.95;80.72;100113.44;4912946;29;20459;-75
2024/01/13 07:44:44;;;;;;;147.25;61.65;;;;;;;-1.54;80.57;100112.56;4913485;29;20382;-74
2024/01/13 07:47:29;;;;;;;152.57;66.88;;;;;;;-1.59;80.36;100114.75;4912984;29;20047;-76
2024/01/13 07:50:15;;;;;;;153.57;72.95;;;;;;;-1.57;80.35;100110.22;4912544;29;20471;-76
2024/01/13 07:53:01;;;;;;;169.93;79.55;;;;;;;-1.40;79.76;100114.84;4913301;29;20471;-76
2024/01/13 07:55:46;;;;;;;188.77;84.03;;;;;;;-1.00;78.89;100126.25;4912193;29;20044;-77
2024/01/13 07:58:32;;;;;;;164.77;73.82;;;;;;;-0.93;78.29;100117.75;4913495;29;20459;-76
2024/01/13 08:01:18;;;;;;;157.80;64.32;;;;;;;-0.95;77.18;100124.88;4912504;29;20052;-75
2024/01/13 08:04:03;;;;;;;137.65;62.30;;;;;;;-1.03;77.54;100122.13;4912490;29;20043;-77
2024/01/13 08:06:48;;;;;;;132.10;58.33;;;;;;;-0.79;76.73;100120.91;4911745;29;20406;-75
2024/01/13 08:09:33;;;;;;;115.60;48.95;;;;;;;-0.47;74.79;100107.63;4910479;29;20440;-76
2024/01/13 08:12:18;;;;;;;94.75;43.88;;;;;;;-0.41;73.66;100127.16;4913108;29;20405;-75
2024/01/13 08:15:05;;;;;;;154.32;63.92;;;;;;;-0.24;74.51;100111.63;4913137;29;20052;-77
2024/01/13 08:17:51;;;;;;;159.55;71.70;;;;;;;0.10;73.71;100123.44;4912785;29;20044;-75
2024/01/13 08:20:36;;;;;;;62.78;21.40;;;;;;;-0.11;69.30;100119.19;4912437;29;20044;-77
2024/01/13 08:23:21;;;;;;;27.83;13.32;;;;;;;0.35;63.07;100107.13;4911673;29;20482;-75
2024/01/13 08:26:07;;;;;;;24.83;12.23;;;;;;;0.54;61.15;100106.25;4912448;29;20109;-76
2024/01/13 08:28:52;;;;;;;29.52;13.50;;;;;;;0.76;58.97;100091.97;4912841;29;20482;-74
2024/01/13 08:31:37;;;;;;;32.83;14.45;;;;;;;0.99;58.24;100102.03;4918597;29;20070;-75
2024/01/13 08:34:23;;;;;;;40.83;16.52;;;;;;;0.82;59.43;100091.38;4910392;29;20066;-75
2024/01/13 08:37:07;;;;;;;48.00;20.52;;;;;;;1.35;59.04;100102.94;4917677;29;20062;-76
2024/01/13 08:39:52;;;;;;;44.22;22.25;;;;;;;1.49;56.68;100110.25;4910467;29;20075;-76
2024/01/13 08:42:40;;;;;;;33.13;17.48;;;;;;;1.21;57.89;100112.09;4900636;29;20055;-77
2024/01/13 08:45:29;;;;;;;18.85;8.73;;;;;;;0.72;55.96;100108.91;4907475;29;20478;-74
2024/01/13 08:48:15;;;;;;;10.95;6.47;;;;;;;0.61;55.93;100115.16;4912294;29;20410;-77
2024/01/13 08:51:00;;;;;;;25.70;11.07;;;;;;;0.80;56.31;100095.94;4896252;29;20052;-75
2024/01/13 08:53:46;;;;;;;16.70;7.60;;;;;;;0.73;55.26;100104.53;4896565;29;20481;-75
2024/01/13 08:56:34;;;;;;;18.20;7.72;;;;;;;0.87;54.98;100106.63;4896663;29;20067;-77
2024/01/13 08:59:19;;;;;;;16.95;9.43;;;;;;;0.51;55.19;100108.31;4896042;29;20486;-76
2024/01/13 09:02:06;;;;;;;23.33;11.40;;;;;;;0.26;58.85;100109.78;4908342;29;20390;-77
2024/01/13 09:04:51;;;;;;;33.88;14.80;;;;;;;-0.03;64.33;100127.16;4896097;29;20079;-76
2024/01/13 09:07:37;;;;;;;43.90;18.52;;;;;;;-0.32;66.34;100114.09;4907615;29;20051;-76
2024/01/13 09:10:23;;;;;;;12.48;8.27;;;;;;;-0.35;67.53;100131.81;4896113;29;20044;-77
2024/01/13 09:13:09;;;;;;;16.55;10.02;;;;;;;-0.35;67.82;100142.28;4914153;29;20068;-74
2024/01/13 09:15:54;;;;;;;14.13;8.15;;;;;;;-0.39;66.78;100140.91;4901878;29;20067;-77
2024/01/13 09:18:39;;;;;;;24.58;12.63;;;;;;;-0.37;67.14;100134.59;4905178;29;20113;-78
2024/01/13 09:21:25;;;;;;;38.88;19.58;;;;;;;-0.06;65.84;100130.03;4900361;29;20494;-76
2024/01/13 09:24:11;;;;;;;27.25;15.15;;;;;;;0.06;64.39;100137.72;4932097;28;20406;-77
2024/01/13 09:26:56;;;;;;;36.08;17.13;;;;;;;0.58;64.26;100130.31;4906430;29;20055;-77
2024/01/13 09:29:42;;;;;;;15.60;9.88;;;;;;;0.73;62.35;100128.88;4907639;29;20071;-75
2024/01/13 09:32:28;;;;;;;22.13;11.07;;;;;;;0.51;60.69;100130.06;4905842;29;20054;-76
2024/01/13 09:35:13;;;;;;;26.85;14.82;;;;;;;0.33;63.00;100109.06;4912206;29;20410;-77
2024/01/13 09:37:58;;;;;;;21.67;12.30;;;;;;;0.42;62.61;100112.63;4919950;28;20101;-77
2024/01/13 09:40:44;;;;;;;27.25;10.52;;;;;;;0.49;60.32;100111.06;4914460;29;20082;-76
2024/01/13 09:43:39;;;;;;;25.45;12.82;;;;;;;0.42;59.88;100104.75;4914685;29;20058;-76
2024/01/13 09:46:25;;;;;;;25.90;12.50;;;;;;;0.34;59.46;100104.63;4980720;28;20497;-77
2024/01/13 09:49:12;;;;;;;25.75;12.48;;;;;;;0.48;58.92;100106.81;4912294;29;20047;-75
2024/01/13 09:51:58;;;;;;;11.48;7.95;;;;;;;0.47;60.65;100097.31;4906506;29;20489;-80
2024/01/13 09:54:47;;;;;;;13.15;9.10;;;;;;;0.33;61.18;100089.94;4912662;29;20406;-77
2024/01/13 09:57:32;;;;;;;18.42;11.13;;;;;;;0.16;60.21;100096.72;4912474;29;20510;-77
2024/01/13 10:00:17;;;;;;;26.25;14.38;;;;;;;-0.02;62.40;100080.94;4912748;29;20055;-77
2024/01/13 10:03:03;;;;;;;37.40;17.15;;;;;;;0.35;62.31;100101.09;4911212;29;20457;-77
2024/01/13 10:05:51;;;;;;;17.67;9.52;;;;;;;0.15;63.51;100085.44;4935493;28;20074;-77
2024/01/13 10:08:37;;;;;;;36.72;17.05;;;;;;;0.02;62.74;100094.53;4915242;29;20478;-75
2024/01/13 10:11:22;;;;;;;37.08;16.40;;;;;;;0.10;62.56;100089.44;4914190;29;20058;-75
2024/01/13 10:14:08;;;;;;;30.90;15.07;;;;;;;0.07;63.14;100095.78;4919600;29;20413;-77
2024/01/13 10:16:54;;;;;;;30.30;14.57;;;;;;;0.08;61.64;100089.56;4904403;29;20498;-78
2024/01/13 10:19:41;;;;;;;31.77;15.82;;;;;;;0.22;61.82;100083.09;4904133;29;20058;-77
2024/01/13 10:22:27;;;;;;;30.52;14.65;;;;;;;0.40;62.42;100081.34;4908557;29;20070;-76
2024/01/13 10:25:12;;;;;;;20.77;10.55;;;;;;;0.48;61.82;100079.84;4912254;29;20066;-78
2024/01/13 10:27:57;;;;;;;13.55;7.63;;;;;;;0.43;62.42;100077.63;4911896;29;20054;-77
2024/01/13 10:30:42;;;;;;;30.10;12.30;;;;;;;0.55;61.51;100081.72;4893208;29;20079;-77
2024/01/13 10:33:29;;;;;;;15.40;7.57;;;;;;;0.62;61.74;100079.34;4917113;29;20074;-77
2024/01/13 10:36:18;;;;;;;31.10;15.00;;;;;;;0.68;58.68;100090.06;4902605;29;20092;-77
2024/01/13 10:39:03;;;;;;;10.32;6.47;;;;;;;0.40;58.11;100078.75;4913368;29;20059;-77
2024/01/13 10:41:51;;;;;;;11.65;7.20;;;;;;;0.32;56.82;100081.25;4912499;29;20066;-77
2024/01/13 10:44:42;;;;;;;12.52;7.05;;;;;;;0.79;57.45;100090.84;4932092;28;20071;-77
2024/01/13 10:47:31;;;;;;;11.07;6.13;;;;;;;0.81;54.90;100075.81;4912663;28;20059;-77
2024/01/13 10:50:16;;;;;;;11.57;7.05;;;;;;;0.50;56.63;100075.28;4907276;29;20482;-80
2024/01/13 10:53:28;;;;;;;7.55;5.35;;;;;;;0.57;57.87;100082.41;4900192;29;20494;-76
2024/01/13 10:56:14;;;;;;;17.67;8.18;;;;;;;0.34;57.21;100065.41;4901828;29;20051;-77
2024/01/13 10:59:00;;;;;;;11.73;6.05;;;;;;;0.30;56.52;100059.66;4907769;29;20398;-75
2024/01/13 11:01:48;;;;;;;12.32;7.45;;;;;;;0.36;56.48;100074.78;4910613;29;21981;-75
2024/01/13 11:04:34;;;;;;;8.52;5.40;;;;;;;0.33;56.28;100074.25;4901678;29;20399;-76
2024/01/13 11:07:19;;;;;;;10.95;6.30;;;;;;;0.29;57.25;100068.47;4909260;29;20071;-76
2024/01/13 11:10:09;;;;;;;10.07;5.82;;;;;;;0.27;57.50;100053.91;4912180;29;20070;-76
2024/01/13 11:13:24;;;;;;;5.78;3.80;;;;;;;0.50;57.95;100063.00;4915259;29;20477;-76
2024/01/13 11:16:12;;;;;;;17.27;9.85;;;;;;;0.18;56.90;100045.09;4918153;29;20068;-76
2024/01/13 11:18:58;;;;;;;14.65;6.93;;;;;;;0.27;56.50;100028.56;4981645;28;20059;-74
2024/01/13 11:21:48;;;;;;;51.72;21.52;;;;;;;0.45;55.72;100037.31;4981755;28;20394;-76
2024/01/13 11:24:34;;;;;;;11.52;5.78;;;;;;;0.64;56.16;100043.41;4911705;29;20511;-77
2024/01/13 11:27:21;;;;;;;9.48;5.95;;;;;;;0.53;56.70;100028.72;4912624;29;20059;-77
2024/01/13 11:30:11;;;;;;;7.35;4.72;;;;;;;0.49;56.92;100034.41;4932840;28;20521;-74
2024/01/13 11:32:56;;;;;;;13.20;7.00;;;;;;;0.62;57.64;100037.50;4983113;28;20402;-75
2024/01/13 11:35:48;;;;;;;10.35;5.50;;;;;;;0.68;57.15;100036.91;4912563;29;20478;-76
2024/01/13 11:38:38;;;;;;;12.30;6.75;;;;;;;0.72;57.49;100035.63;4975958;28;20494;-75
2024/01/13 11:41:23;;;;;;;17.98;10.32;;;;;;;0.65;57.29;100031.97;4912610;29;20458;-76
2024/01/13 11:44:09;;;;;;;19.95;10.43;;;;;;;0.58;57.87;100004.75;4912181;29;20391;-75
2024/01/13 11:47:06;;;;;;;15.00;8.75;;;;;;;0.55;56.60;100023.34;4912791;29;20059;-75
2024/01/13 11:49:52;;;;;;;13.85;6.50;;;;;;;0.78;57.32;100019.34;4912777;29;20055;-76
2024/01/13 11:52:38;;;;;;;16.33;6.85;;;;;;;0.72;55.89;100011.28;4911321;29;20086;-75
2024/01/13 11:55:23;;;;;;;14.02;8.55;;;;;;;0.83;56.33;100018.94;4913130;29;20410;-76
2024/01/13 11:58:09;;;;;;;14.18;6.00;;;;;;;0.67;55.58;100011.72;4911403;29;20482;-76
2024/01/13 12:00:54;;;;;;;8.35;5.28;;;;;;;0.98;56.68;100016.66;4918815;29;20498;-76
2024/01/13 12:03:43;;;;;;;12.05;6.00;;;;;;;0.87;56.07;99999.34;4912331;29;20055;-77
2024/01/13 12:06:28;;;;;;;13.07;6.18;;;;;;;0.92;55.50;99982.22;4911004;29;20486;-76
2024/01/13 12:09:15;;;;;;;15.70;8.27;;;;;;;0.70;56.35;99982.66;4982267;28;20514;-77
2024/01/13 12:12:07;;;;;;;19.52;8.77;;;;;;;0.67;57.26;99968.06;4916087;29;20062;-76
2024/01/13 12:14:54;;;;;;;12.48;6.18;;;;;;;0.75;55.65;99969.13;4914487;29;20051;-77
2024/01/13 12:17:39;;;;;;;16.73;8.25;;;;;;;0.89;57.55;99966.81;4916125;29;20066;-75
2024/01/13 12:20:25;;;;;;;9.15;5.03;;;;;;;0.85;56.45;99934.09;4915574;29;20493;-75
2024/01/13 12:23:11;;;;;;;6.68;4.60;;;;;;;0.70;56.97;99935.56;4915591;29;20055;-75
2024/01/13 12:25:56;;;;;;;8.18;5.07;;;;;;;0.71;57.29;99933.78;4914481;29;20067;-75
2024/01/13 12:28:42;;;;;;;14.80;7.60;;;;;;;0.62;55.84;99911.94;4915283;29;20054;-76
2024/01/13 12:31:28;;;;;;;7.38;3.65;;;;;;;0.69;56.76;99913.00;4915642;29;20046;-75
2024/01/13 12:34:14;;;;;;;16.83;8.18;;;;;;;0.76;55.53;99906.19;4915590;29;20398;-77